sensor_id;sensor_type;location;lat;lon;timestamp;pressure;altitude;pressure_sealevel;temperature;humidity
55315;BME280;41619;42.816;23.226;2023-03-05T00:01:12;95087.31;;;5.38;72.52
55315;BME280;41619;42.816;23.226;2023-03-05T00:03:38;95085.41;;;5.38;72.49
55315;BME280;41619;42.816;23.226;2023-03-05T00:06:03;95082.38;;;5.40;73.01
55315;BME280;41619;42.816;23.226;2023-03-05T00:08:29;95085.88;;;5.40;72.31
55315;BME280;41619;42.816;23.226;2023-03-05T00:11:00;95083.59;;;5.42;72.41
55315;BME280;41619;42.816;23.226;2023-03-05T00:13:26;95080.88;;;5.42;72.00
55315;BME280;41619;42.816;23.226;2023-03-05T00:15:51;95073.53;;;5.43;72.28
55315;BME280;41619;42.816;23.226;2023-03-05T00:18:17;95074.31;;;5.43;72.69
55315;BME280;41619;42.816;23.226;2023-03-05T00:20:43;95064.25;;;5.44;72.82
55315;BME280;41619;42.816;23.226;2023-03-05T00:23:08;95070.81;;;5.43;72.50
55315;BME280;41619;42.816;23.226;2023-03-05T00:25:35;95057.94;;;5.40;72.86
55315;BME280;41619;42.816;23.226;2023-03-05T00:28:01;95056.03;;;5.40;72.74
55315;BME280;41619;42.816;23.226;2023-03-05T00:30:26;95054.44;;;5.39;72.83
55315;BME280;41619;42.816;23.226;2023-03-05T00:32:51;95050.47;;;5.37;73.19
55315;BME280;41619;42.816;23.226;2023-03-05T00:35:17;95055.09;;;5.36;72.95
55315;BME280;41619;42.816;23.226;2023-03-05T00:37:42;95046.16;;;5.36;73.11
55315;BME280;41619;42.816;23.226;2023-03-05T00:40:08;95040.75;;;5.36;72.87
55315;BME280;41619;42.816;23.226;2023-03-05T00:42:34;95046.97;;;5.36;72.70
55315;BME280;41619;42.816;23.226;2023-03-05T00:45:03;95039.16;;;5.35;72.57
55315;BME280;41619;42.816;23.226;2023-03-05T00:47:29;95041.09;;;5.34;72.38
55315;BME280;41619;42.816;23.226;2023-03-05T00:49:54;95037.91;;;5.32;72.66
55315;BME280;41619;42.816;23.226;2023-03-05T00:52:20;95037.91;;;5.32;72.80
55315;BME280;41619;42.816;23.226;2023-03-05T00:54:45;95035.56;;;5.31;72.96
55315;BME280;41619;42.816;23.226;2023-03-05T00:57:10;95033.19;;;5.29;73.28
55315;BME280;41619;42.816;23.226;2023-03-05T00:59:36;95037.38;;;5.27;73.11
55315;BME280;41619;42.816;23.226;2023-03-05T01:02:01;95033.09;;;5.26;73.01
55315;BME280;41619;42.816;23.226;2023-03-05T01:04:27;95026.88;;;5.25;72.60
55315;BME280;41619;42.816;23.226;2023-03-05T01:06:52;95024.50;;;5.24;73.23
55315;BME280;41619;42.816;23.226;2023-03-05T01:09:17;95022.91;;;5.23;73.17
55315;BME280;41619;42.816;23.226;2023-03-05T01:11:43;95016.69;;;5.22;73.21
55315;BME280;41619;42.816;23.226;2023-03-05T01:14:08;95016.69;;;5.22;73.18
55315;BME280;41619;42.816;23.226;2023-03-05T01:16:34;95010.13;;;5.23;73.34
55315;BME280;41619;42.816;23.226;2023-03-05T01:18:59;95013.66;;;5.24;72.97
55315;BME280;41619;42.816;23.226;2023-03-05T01:21:24;95021.44;;;5.25;72.50
55315;BME280;41619;42.816;23.226;2023-03-05T01:23:50;95014.09;;;5.26;72.64
55315;BME280;41619;42.816;23.226;2023-03-05T01:26:15;95015.66;;;5.27;72.18
55315;BME280;41619;42.816;23.226;2023-03-05T01:28:41;95005.94;;;5.26;71.98
55315;BME280;41619;42.816;23.226;2023-03-05T01:31:09;95012.94;;;5.27;71.98
55315;BME280;41619;42.816;23.226;2023-03-05T01:33:35;95008.66;;;5.26;71.58
55315;BME280;41619;42.816;23.226;2023-03-05T01:36:00;95005.50;;;5.24;71.97
55315;BME280;41619;42.816;23.226;2023-03-05T01:38:26;95004.72;;;5.23;72.01
55315;BME280;41619;42.816;23.226;2023-03-05T01:40:51;95009.34;;;5.23;71.99
55315;BME280;41619;42.816;23.226;2023-03-05T01:43:26;95005.84;;;5.22;72.18
55315;BME280;41619;42.816;23.226;2023-03-05T01:48:53;95017.50;;;5.23;72.03
55315;BME280;41619;42.816;23.226;2023-03-05T01:51:22;95019.63;;;5.17;71.88
55315;BME280;41619;42.816;23.226;2023-03-05T01:53:49;95025.28;;;5.12;72.01
55315;BME280;41619;42.816;23.226;2023-03-05T01:56:15;95020.56;;;5.09;72.19
55315;BME280;41619;42.816;23.226;2023-03-05T01:58:41;95017.72;;;5.05;71.81
55315;BME280;41619;42.816;23.226;2023-03-05T02:01:07;95013.78;;;5.03;72.33
55315;BME280;41619;42.816;23.226;2023-03-05T02:03:32;95012.16;;;5.02;71.39
55315;BME280;41619;42.816;23.226;2023-03-05T02:05:58;95011.38;;;5.01;72.17
55315;BME280;41619;42.816;23.226;2023-03-05T02:08:24;95008.22;;;4.99;71.91
55315;BME280;41619;42.816;23.226;2023-03-05T02:10:54;95004.72;;;4.99;72.27
55315;BME280;41619;42.816;23.226;2023-03-05T02:13:26;95013.66;;;4.99;72.12
55315;BME280;41619;42.816;23.226;2023-03-05T02:15:53;95005.84;;;4.98;71.88
55315;BME280;41619;42.816;23.226;2023-03-05T02:18:20;95013.19;;;4.97;72.08
55315;BME280;41619;42.816;23.226;2023-03-05T02:23:22;95006.53;;;4.95;72.20
55315;BME280;41619;42.816;23.226;2023-03-05T02:25:48;95003.38;;;4.93;72.05
55315;BME280;41619;42.816;23.226;2023-03-05T02:31:08;95012.53;;;4.88;72.59
55315;BME280;41619;42.816;23.226;2023-03-05T02:33:35;95012.09;;;4.86;72.15
55315;BME280;41619;42.816;23.226;2023-03-05T02:36:00;95009.25;;;4.82;72.24
55315;BME280;41619;42.816;23.226;2023-03-05T02:38:25;95015.78;;;4.81;72.52
55315;BME280;41619;42.816;23.226;2023-03-05T02:40:51;95011.94;;;4.82;72.82
55315;BME280;41619;42.816;23.226;2023-03-05T02:43:16;95012.28;;;4.81;72.22
55315;BME280;41619;42.816;23.226;2023-03-05T02:45:41;95019.19;;;4.78;72.69
55315;BME280;41619;42.816;23.226;2023-03-05T02:48:07;95011.84;;;4.79;72.36
55315;BME280;41619;42.816;23.226;2023-03-05T02:50:33;95012.63;;;4.79;72.61
55315;BME280;41619;42.816;23.226;2023-03-05T02:52:58;95007.56;;;4.78;72.67
55315;BME280;41619;42.816;23.226;2023-03-05T02:55:24;95004.06;;;4.77;72.56
55315;BME280;41619;42.816;23.226;2023-03-05T02:57:49;95002.91;;;4.78;72.59
55315;BME280;41619;42.816;23.226;2023-03-05T03:00:15;95005.53;;;4.75;73.02
55315;BME280;41619;42.816;23.226;2023-03-05T03:02:41;95009.03;;;4.75;72.82
55315;BME280;41619;42.816;23.226;2023-03-05T03:05:06;95010.06;;;4.71;72.66
55315;BME280;41619;42.816;23.226;2023-03-05T03:07:32;95005.75;;;4.70;73.25
55315;BME280;41619;42.816;23.226;2023-03-05T03:10:00;95007.34;;;4.71;72.85
55315;BME280;41619;42.816;23.226;2023-03-05T03:12:25;95008.91;;;4.72;73.12
55315;BME280;41619;42.816;23.226;2023-03-05T03:14:50;95015.91;;;4.73;73.06
55315;BME280;41619;42.816;23.226;2023-03-05T03:17:17;95008.25;;;4.75;72.42
55315;BME280;41619;42.816;23.226;2023-03-05T03:19:43;95009.03;;;4.75;72.58
55315;BME280;41619;42.816;23.226;2023-03-05T03:22:10;95007.00;;;4.72;72.54
55315;BME280;41619;42.816;23.226;2023-03-05T03:24:36;95010.84;;;4.71;72.13
55315;BME280;41619;42.816;23.226;2023-03-05T03:27:03;95006.22;;;4.72;72.31
55315;BME280;41619;42.816;23.226;2023-03-05T03:29:29;95003.84;;;4.70;72.33
55315;BME280;41619;42.816;23.226;2023-03-05T03:31:55;95011.97;;;4.70;72.42
55315;BME280;41619;42.816;23.226;2023-03-05T03:34:21;95014.22;;;4.68;72.15
55315;BME280;41619;42.816;23.226;2023-03-05T03:36:47;95008.81;;;4.68;72.00
55315;BME280;41619;42.816;23.226;2023-03-05T03:39:13;95003.38;;;4.68;72.08
55315;BME280;41619;42.816;23.226;2023-03-05T03:41:44;94999.56;;;4.69;72.14
55315;BME280;41619;42.816;23.226;2023-03-05T03:44:10;95004.06;;;4.65;72.29
55315;BME280;41619;42.816;23.226;2023-03-05T03:46:37;95001.03;;;4.67;72.29
55315;BME280;41619;42.816;23.226;2023-03-05T03:49:04;94996.72;;;4.66;72.06
55315;BME280;41619;42.816;23.226;2023-03-05T03:51:30;94991.31;;;4.66;71.78
55315;BME280;41619;42.816;23.226;2023-03-05T03:53:55;94997.84;;;4.65;72.06
55315;BME280;41619;42.816;23.226;2023-03-05T03:56:20;95002.00;;;4.62;71.48
55315;BME280;41619;42.816;23.226;2023-03-05T03:58:49;95000.09;;;4.63;71.61
55315;BME280;41619;42.816;23.226;2023-03-05T04:01:15;94996.13;;;4.60;71.67
55315;BME280;41619;42.816;23.226;2023-03-05T04:03:40;94994.56;;;4.59;71.04
55315;BME280;41619;42.816;23.226;2023-03-05T04:06:06;94992.97;;;4.58;71.26
55315;BME280;41619;42.816;23.226;2023-03-05T04:08:31;94990.59;;;4.56;71.37
55315;BME280;41619;42.816;23.226;2023-03-05T04:10:59;94990.59;;;4.56;71.27
55315;BME280;41619;42.816;23.226;2023-03-05T04:13:24;94988.69;;;4.57;71.12
55315;BME280;41619;42.816;23.226;2023-03-05T04:15:50;94987.44;;;4.54;70.61
55315;BME280;41619;42.816;23.226;2023-03-05T04:18:15;94984.75;;;4.54;70.50
55315;BME280;41619;42.816;23.226;2023-03-05T04:20:41;94989.72;;;4.52;71.00
55315;BME280;41619;42.816;23.226;2023-03-05T04:23:06;94998.19;;;4.51;70.43
55315;BME280;41619;42.816;23.226;2023-03-05T04:25:31;95002.03;;;4.50;70.63
55315;BME280;41619;42.816;23.226;2023-03-05T04:27:57;95009.22;;;4.46;70.85
55315;BME280;41619;42.816;23.226;2023-03-05T04:30:22;95008.31;;;4.42;70.55
55315;BME280;41619;42.816;23.226;2023-03-05T04:32:47;95006.28;;;4.39;70.82
55315;BME280;41619;42.816;23.226;2023-03-05T04:35:13;95015.44;;;4.34;70.59
55315;BME280;41619;42.816;23.226;2023-03-05T04:37:38;95009.75;;;4.27;70.24
55315;BME280;41619;42.816;23.226;2023-03-05T04:40:04;95021.59;;;4.22;70.23
55315;BME280;41619;42.816;23.226;2023-03-05T04:42:30;95009.53;;;4.20;70.24
55315;BME280;41619;42.816;23.226;2023-03-05T04:44:55;95015.63;;;4.17;70.20
55315;BME280;41619;42.816;23.226;2023-03-05T04:47:21;95011.53;;;4.11;70.19
55315;BME280;41619;42.816;23.226;2023-03-05T04:49:46;95012.66;;;4.10;70.15
55315;BME280;41619;42.816;23.226;2023-03-05T04:52:12;95011.53;;;4.11;70.27
55315;BME280;41619;42.816;23.226;2023-03-05T04:54:38;95006.13;;;4.11;70.12
55315;BME280;41619;42.816;23.226;2023-03-05T04:57:03;95001.50;;;4.11;70.31
55315;BME280;41619;42.816;23.226;2023-03-05T04:59:30;95009.28;;;4.13;70.14
55315;BME280;41619;42.816;23.226;2023-03-05T05:01:55;94998.78;;;4.11;70.43
55315;BME280;41619;42.816;23.226;2023-03-05T05:04:21;95004.66;;;4.13;69.96
55315;BME280;41619;42.816;23.226;2023-03-05T05:06:46;95007.38;;;4.13;69.64
55315;BME280;41619;42.816;23.226;2023-03-05T05:09:11;95008.50;;;4.12;70.28
55315;BME280;41619;42.816;23.226;2023-03-05T05:11:38;95011.66;;;4.14;69.93
55315;BME280;41619;42.816;23.226;2023-03-05T05:14:03;95010.06;;;4.13;69.62
55315;BME280;41619;42.816;23.226;2023-03-05T05:16:29;95016.28;;;4.14;69.84
55315;BME280;41619;42.816;23.226;2023-03-05T05:18:54;95015.16;;;4.15;70.33
55315;BME280;41619;42.816;23.226;2023-03-05T05:21:19;95020.56;;;4.15;69.77
55315;BME280;41619;42.816;23.226;2023-03-05T05:23:45;95014.03;;;4.16;70.07
55315;BME280;41619;42.816;23.226;2023-03-05T05:26:11;95016.41;;;4.17;70.08
55315;BME280;41619;42.816;23.226;2023-03-05T05:28:41;95014.94;;;4.20;69.93
55315;BME280;41619;42.816;23.226;2023-03-05T05:31:09;95020.34;;;4.20;70.15
55315;BME280;41619;42.816;23.226;2023-03-05T05:33:35;95017.66;;;4.20;70.35
55315;BME280;41619;42.816;23.226;2023-03-05T05:36:05;95017.31;;;4.21;70.33
55315;BME280;41619;42.816;23.226;2023-03-05T05:38:32;95030.84;;;4.21;69.88
55315;BME280;41619;42.816;23.226;2023-03-05T05:41:07;95028.13;;;4.21;70.18
55315;BME280;41619;42.816;23.226;2023-03-05T05:43:34;95029.59;;;4.19;70.21
55315;BME280;41619;42.816;23.226;2023-03-05T05:46:01;95029.94;;;4.17;70.00
55315;BME280;41619;42.816;23.226;2023-03-05T05:48:31;95024.19;;;4.19;70.30
55315;BME280;41619;42.816;23.226;2023-03-05T05:50:58;95027.47;;;4.24;70.51
55315;BME280;41619;42.816;23.226;2023-03-05T05:53:24;95028.97;;;4.34;70.37
55315;BME280;41619;42.816;23.226;2023-03-05T05:55:49;95031.72;;;4.46;70.11
55315;BME280;41619;42.816;23.226;2023-03-05T05:58:15;95037.13;;;4.59;70.29
55315;BME280;41619;42.816;23.226;2023-03-05T06:00:40;95032.06;;;4.69;69.76
55315;BME280;41619;42.816;23.226;2023-03-05T06:03:06;95033.53;;;4.79;69.66
55315;BME280;41619;42.816;23.226;2023-03-05T06:05:32;95041.91;;;4.86;69.35
55315;BME280;41619;42.816;23.226;2023-03-05T06:07:58;95036.72;;;4.93;68.97
55315;BME280;41619;42.816;23.226;2023-03-05T06:10:23;95044.72;;;5.02;69.33
55315;BME280;41619;42.816;23.226;2023-03-05T06:12:48;95042.59;;;5.07;68.73
55315;BME280;41619;42.816;23.226;2023-03-05T06:15:14;95030.94;;;5.07;68.86
55315;BME280;41619;42.816;23.226;2023-03-05T06:17:39;95052.66;;;5.07;68.17
55315;BME280;41619;42.816;23.226;2023-03-05T06:20:05;95048.34;;;5.06;68.09
55315;BME280;41619;42.816;23.226;2023-03-05T06:22:34;95041.22;;;5.01;68.08
55315;BME280;41619;42.816;23.226;2023-03-05T06:25:00;95047.66;;;4.97;68.01
55315;BME280;41619;42.816;23.226;2023-03-05T06:27:25;95051.16;;;4.97;68.19
55315;BME280;41619;42.816;23.226;2023-03-05T06:29:52;95043.13;;;5.01;68.75
55315;BME280;41619;42.816;23.226;2023-03-05T06:32:19;95050.28;;;5.05;67.89
55315;BME280;41619;42.816;23.226;2023-03-05T06:34:44;95052.97;;;5.17;67.88
55315;BME280;41619;42.816;23.226;2023-03-05T06:37:09;95052.63;;;5.43;68.08
55315;BME280;41619;42.816;23.226;2023-03-05T06:39:35;95051.97;;;5.74;67.35
55315;BME280;41619;42.816;23.226;2023-03-05T06:42:01;95060.38;;;6.10;66.49
55315;BME280;41619;42.816;23.226;2023-03-05T06:44:26;95059.75;;;6.44;65.94
55315;BME280;41619;42.816;23.226;2023-03-05T06:46:52;95064.97;;;6.81;65.58
55315;BME280;41619;42.816;23.226;2023-03-05T06:49:17;95060.06;;;7.18;65.22
55315;BME280;41619;42.816;23.226;2023-03-05T06:51:43;95058.66;;;7.59;64.64
55315;BME280;41619;42.816;23.226;2023-03-05T06:54:11;95053.63;;;7.96;64.19
55315;BME280;41619;42.816;23.226;2023-03-05T06:56:39;95062.03;;;8.26;63.64
55315;BME280;41619;42.816;23.226;2023-03-05T06:59:05;95059.00;;;8.50;63.13
55315;BME280;41619;42.816;23.226;2023-03-05T07:01:31;95062.56;;;8.74;62.82
55315;BME280;41619;42.816;23.226;2023-03-05T07:03:57;95073.53;;;9.00;62.25
55315;BME280;41619;42.816;23.226;2023-03-05T07:06:25;95061.03;;;9.22;61.91
55315;BME280;41619;42.816;23.226;2023-03-05T07:08:57;95057.75;;;9.36;61.07
55315;BME280;41619;42.816;23.226;2023-03-05T07:11:23;95068.81;;;9.47;60.94
55315;BME280;41619;42.816;23.226;2023-03-05T07:13:49;95067.13;;;9.65;61.53
55315;BME280;41619;42.816;23.226;2023-03-05T07:16:30;95071.44;;;9.92;60.20
55315;BME280;41619;42.816;23.226;2023-03-05T07:18:56;95078.53;;;10.23;61.10
55315;BME280;41619;42.816;23.226;2023-03-05T07:21:27;95070.06;;;10.69;62.03
55315;BME280;41619;42.816;23.226;2023-03-05T07:23:53;95071.94;;;11.50;62.26
55315;BME280;41619;42.816;23.226;2023-03-05T07:26:21;95071.97;;;13.67;58.60
55315;BME280;41619;42.816;23.226;2023-03-05T07:28:47;95051.63;;;15.87;53.88
55315;BME280;41619;42.816;23.226;2023-03-05T07:31:18;95050.53;;;17.14;49.77
55315;BME280;41619;42.816;23.226;2023-03-05T07:33:45;95051.53;;;16.32;49.78
55315;BME280;41619;42.816;23.226;2023-03-05T07:36:11;95049.25;;;15.89;49.38
55315;BME280;41619;42.816;23.226;2023-03-05T07:38:37;95048.41;;;15.92;49.13
55315;BME280;41619;42.816;23.226;2023-03-05T07:41:05;95035.31;;;16.38;47.89
55315;BME280;41619;42.816;23.226;2023-03-05T07:43:31;95039.22;;;18.25;44.78
55315;BME280;41619;42.816;23.226;2023-03-05T07:45:56;95041.81;;;20.25;41.58
55315;BME280;41619;42.816;23.226;2023-03-05T07:48:22;95033.78;;;21.53;39.25
55315;BME280;41619;42.816;23.226;2023-03-05T07:50:48;95034.84;;;22.41;37.50
55315;BME280;41619;42.816;23.226;2023-03-05T07:53:14;95035.72;;;22.16;37.03
55315;BME280;41619;42.816;23.226;2023-03-05T07:55:43;95028.78;;;22.99;35.50
55315;BME280;41619;42.816;23.226;2023-03-05T07:58:10;95033.72;;;23.56;34.81
55315;BME280;41619;42.816;23.226;2023-03-05T08:00:36;95032.69;;;24.67;33.03
55315;BME280;41619;42.816;23.226;2023-03-05T08:03:01;95026.84;;;25.35;32.43
55315;BME280;41619;42.816;23.226;2023-03-05T08:05:27;95023.09;;;26.28;31.38
55315;BME280;41619;42.816;23.226;2023-03-05T08:07:52;95016.31;;;27.12;30.39
55315;BME280;41619;42.816;23.226;2023-03-05T08:10:17;95016.91;;;27.45;29.51
55315;BME280;41619;42.816;23.226;2023-03-05T08:12:43;95012.88;;;27.82;28.64
55315;BME280;41619;42.816;23.226;2023-03-05T08:15:09;95012.09;;;28.16;27.99
55315;BME280;41619;42.816;23.226;2023-03-05T08:17:37;95009.84;;;28.61;26.86
55315;BME280;41619;42.816;23.226;2023-03-05T08:20:03;95010.00;;;28.72;26.58
55315;BME280;41619;42.816;23.226;2023-03-05T08:22:36;95008.88;;;28.64;26.09
55315;BME280;41619;42.816;23.226;2023-03-05T08:25:02;95002.91;;;27.81;26.54
55315;BME280;41619;42.816;23.226;2023-03-05T08:27:29;94999.13;;;26.66;26.93
55315;BME280;41619;42.816;23.226;2023-03-05T08:29:54;94995.19;;;25.86;27.49
55315;BME280;41619;42.816;23.226;2023-03-05T08:32:20;94991.44;;;25.89;27.04
55315;BME280;41619;42.816;23.226;2023-03-05T08:34:45;94992.78;;;26.17;26.61
55315;BME280;41619;42.816;23.226;2023-03-05T08:37:10;94985.81;;;26.37;25.84
55315;BME280;41619;42.816;23.226;2023-03-05T08:39:36;94985.91;;;26.81;25.23
55315;BME280;41619;42.816;23.226;2023-03-05T08:42:02;94978.91;;;26.91;25.11
55315;BME280;41619;42.816;23.226;2023-03-05T08:44:28;94973.31;;;26.91;24.94
55315;BME280;41619;42.816;23.226;2023-03-05T08:46:54;94963.19;;;27.73;23.82
55315;BME280;41619;42.816;23.226;2023-03-05T08:49:22;94969.97;;;27.52;23.86
55315;BME280;41619;42.816;23.226;2023-03-05T08:51:47;94958.53;;;27.70;23.62
55315;BME280;41619;42.816;23.226;2023-03-05T08:54:13;94958.50;;;27.35;23.17
55315;BME280;41619;42.816;23.226;2023-03-05T08:56:38;94957.59;;;25.59;23.95
55315;BME280;41619;42.816;23.226;2023-03-05T08:59:04;94954.53;;;24.18;24.78
55315;BME280;41619;42.816;23.226;2023-03-05T09:01:30;94950.09;;;22.82;25.48
55315;BME280;41619;42.816;23.226;2023-03-05T09:04:00;94951.72;;;22.70;25.36
55315;BME280;41619;42.816;23.226;2023-03-05T09:06:26;94951.19;;;21.84;25.78
55315;BME280;41619;42.816;23.226;2023-03-05T09:08:52;94949.81;;;20.78;26.67
55315;BME280;41619;42.816;23.226;2023-03-05T09:11:19;94950.38;;;20.02;27.28
55315;BME280;41619;42.816;23.226;2023-03-05T09:13:45;94948.00;;;18.90;27.26
55315;BME280;41619;42.816;23.226;2023-03-05T09:16:13;94960.88;;;18.05;27.99
55315;BME280;41619;42.816;23.226;2023-03-05T09:18:39;94944.19;;;18.08;27.91
55315;BME280;41619;42.816;23.226;2023-03-05T09:21:14;94955.25;;;17.89;28.11
55315;BME280;41619;42.816;23.226;2023-03-05T09:23:39;94959.31;;;18.43;27.59
55315;BME280;41619;42.816;23.226;2023-03-05T09:26:07;94958.81;;;18.49;27.32
55315;BME280;41619;42.816;23.226;2023-03-05T09:28:33;94950.66;;;18.41;27.44
55315;BME280;41619;42.816;23.226;2023-03-05T09:31:04;94945.59;;;18.36;27.35
55315;BME280;41619;42.816;23.226;2023-03-05T09:33:30;94939.78;;;18.31;27.28
55315;BME280;41619;42.816;23.226;2023-03-05T09:35:56;94938.44;;;17.99;27.85
55315;BME280;41619;42.816;23.226;2023-03-05T09:38:22;94943.53;;;17.81;28.14
55315;BME280;41619;42.816;23.226;2023-03-05T09:40:54;94937.66;;;17.55;28.04
55315;BME280;41619;42.816;23.226;2023-03-05T09:49:20;94925.72;;;16.00;29.15
55315;BME280;41619;42.816;23.226;2023-03-05T09:51:53;94929.97;;;15.33;30.10
55315;BME280;41619;42.816;23.226;2023-03-05T09:54:28;94927.38;;;14.60;31.13
55315;BME280;41619;42.816;23.226;2023-03-05T09:57:00;94924.59;;;13.87;31.27
55315;BME280;41619;42.816;23.226;2023-03-05T09:59:53;94928.66;;;13.47;32.43
55315;BME280;41619;42.816;23.226;2023-03-05T10:02:24;94925.88;;;13.50;32.34
55315;BME280;41619;42.816;23.226;2023-03-05T10:05:01;94924.34;;;13.42;32.12
55315;BME280;41619;42.816;23.226;2023-03-05T10:07:30;94927.53;;;13.01;32.78
55315;BME280;41619;42.816;23.226;2023-03-05T10:10:02;94910.63;;;12.82;32.91
55315;BME280;41619;42.816;23.226;2023-03-05T10:12:40;94920.81;;;12.63;32.69
55315;BME280;41619;42.816;23.226;2023-03-05T10:20:57;94908.28;;;12.69;32.87
55315;BME280;41619;42.816;23.226;2023-03-05T10:23:33;94903.91;;;13.57;32.31
55315;BME280;41619;42.816;23.226;2023-03-05T10:26:19;94911.53;;;14.09;31.94
55315;BME280;41619;42.816;23.226;2023-03-05T10:31:49;94905.66;;;14.03;31.54
55315;BME280;41619;42.816;23.226;2023-03-05T10:34:47;94899.59;;;13.35;32.28
55315;BME280;41619;42.816;23.226;2023-03-05T10:47:58;94881.22;;;12.75;33.39
55315;BME280;41619;42.816;23.226;2023-03-05T10:50:29;94874.50;;;13.15;32.94
55315;BME280;41619;42.816;23.226;2023-03-05T10:55:34;94856.44;;;13.32;32.68
55315;BME280;41619;42.816;23.226;2023-03-05T10:58:09;94860.03;;;12.93;32.76
55315;BME280;41619;42.816;23.226;2023-03-05T11:00:35;94861.63;;;12.69;33.33
55315;BME280;41619;42.816;23.226;2023-03-05T11:03:07;94860.41;;;13.02;33.41
55315;BME280;41619;42.816;23.226;2023-03-05T11:05:43;94854.84;;;13.45;32.57
55315;BME280;41619;42.816;23.226;2023-03-05T11:08:44;94853.28;;;14.21;31.87
55315;BME280;41619;42.816;23.226;2023-03-05T11:11:17;94845.50;;;14.09;31.49
55315;BME280;41619;42.816;23.226;2023-03-05T11:16:26;94842.94;;;13.70;32.25
55315;BME280;41619;42.816;23.226;2023-03-05T11:21:38;94830.34;;;13.76;32.93
55315;BME280;41619;42.816;23.226;2023-03-05T11:24:15;94831.97;;;14.36;32.20
55315;BME280;41619;42.816;23.226;2023-03-05T11:26:53;94830.69;;;14.51;31.96
55315;BME280;41619;42.816;23.226;2023-03-05T11:29:27;94817.81;;;14.30;32.12
55315;BME280;41619;42.816;23.226;2023-03-05T11:31:54;94817.47;;;14.24;32.44
55315;BME280;41619;42.816;23.226;2023-03-05T11:34:23;94817.06;;;14.26;32.39
55315;BME280;41619;42.816;23.226;2023-03-05T11:39:19;94813.03;;;13.82;33.00
55315;BME280;41619;42.816;23.226;2023-03-05T11:44:34;94800.44;;;13.85;33.14
55315;BME280;41619;42.816;23.226;2023-03-05T11:49:54;94793.97;;;14.13;33.18
55315;BME280;41619;42.816;23.226;2023-03-05T11:52:26;94793.97;;;14.13;33.13
55315;BME280;41619;42.816;23.226;2023-03-05T11:55:14;94790.31;;;14.30;33.35
55315;BME280;41619;42.816;23.226;2023-03-05T11:57:49;94787.56;;;14.27;32.98
55315;BME280;41619;42.816;23.226;2023-03-05T12:00:30;94783.59;;;14.35;33.04
55315;BME280;41619;42.816;23.226;2023-03-05T12:02:58;94776.94;;;14.32;33.21
55315;BME280;41619;42.816;23.226;2023-03-05T12:05:26;94776.78;;;14.50;32.92
55315;BME280;41619;42.816;23.226;2023-03-05T12:07:55;94775.44;;;14.72;32.75
55315;BME280;41619;42.816;23.226;2023-03-05T12:10:24;94768.63;;;14.84;32.54
55315;BME280;41619;42.816;23.226;2023-03-05T12:13:06;94767.75;;;14.53;32.71
55315;BME280;41619;42.816;23.226;2023-03-05T12:15:47;94771.03;;;14.30;32.92
55315;BME280;41619;42.816;23.226;2023-03-05T12:23:26;94754.31;;;14.07;33.23
55315;BME280;41619;42.816;23.226;2023-03-05T12:25:53;94757.03;;;14.10;32.72
55315;BME280;41619;42.816;23.226;2023-03-05T12:30:58;94749.53;;;13.59;33.34
55315;BME280;41619;42.816;23.226;2023-03-05T12:33:33;94752.28;;;13.55;33.06
55315;BME280;41619;42.816;23.226;2023-03-05T12:38:55;94747.28;;;13.32;33.37
55315;BME280;41619;42.816;23.226;2023-03-05T12:49:37;94736.28;;;13.36;33.44
55315;BME280;41619;42.816;23.226;2023-03-05T12:52:03;94737.53;;;13.21;33.30
55315;BME280;41619;42.816;23.226;2023-03-05T12:54:37;94730.09;;;13.07;33.53
55315;BME280;41619;42.816;23.226;2023-03-05T12:57:24;94731.28;;;12.99;34.01
55315;BME280;41619;42.816;23.226;2023-03-05T13:00:10;94721.88;;;13.03;33.52
55315;BME280;41619;42.816;23.226;2023-03-05T13:02:38;94719.91;;;13.04;33.74
55315;BME280;41619;42.816;23.226;2023-03-05T13:07:49;94712.94;;;12.78;33.77
55315;BME280;41619;42.816;23.226;2023-03-05T13:10:28;94723.13;;;12.81;33.78
55315;BME280;41619;42.816;23.226;2023-03-05T13:12:54;94719.59;;;12.81;34.26
55315;BME280;41619;42.816;23.226;2023-03-05T13:15:23;94724.31;;;12.84;34.33
55315;BME280;41619;42.816;23.226;2023-03-05T13:18:19;94710.50;;;12.98;33.91
55315;BME280;41619;42.816;23.226;2023-03-05T13:20:45;94706.91;;;13.19;33.62
55315;BME280;41619;42.816;23.226;2023-03-05T13:25:44;94705.25;;;13.39;33.27
55315;BME280;41619;42.816;23.226;2023-03-05T13:28:12;94710.06;;;13.14;33.55
55315;BME280;41619;42.816;23.226;2023-03-05T13:30:52;94708.94;;;13.00;33.96
55315;BME280;41619;42.816;23.226;2023-03-05T13:33:33;94707.03;;;12.87;34.11
55315;BME280;41619;42.816;23.226;2023-03-05T13:35:59;94718.44;;;12.78;33.88
55315;BME280;41619;42.816;23.226;2023-03-05T13:38:30;94709.81;;;12.76;33.88
55315;BME280;41619;42.816;23.226;2023-03-05T13:43:49;94707.16;;;12.26;34.13
55315;BME280;41619;42.816;23.226;2023-03-05T13:48:57;94709.13;;;11.83;34.43
55315;BME280;41619;42.816;23.226;2023-03-05T13:51:40;94705.19;;;11.59;34.83
55315;BME280;41619;42.816;23.226;2023-03-05T13:54:05;94714.53;;;11.40;34.94
55315;BME280;41619;42.816;23.226;2023-03-05T13:56:34;94701.22;;;11.42;35.22
55315;BME280;41619;42.816;23.226;2023-03-05T13:58:59;94705.94;;;11.42;34.91
55315;BME280;41619;42.816;23.226;2023-03-05T14:01:39;94705.16;;;11.48;34.96
55315;BME280;41619;42.816;23.226;2023-03-05T14:04:33;94701.22;;;11.49;35.30
55315;BME280;41619;42.816;23.226;2023-03-05T14:07:07;94705.50;;;11.29;34.92
55315;BME280;41619;42.816;23.226;2023-03-05T14:09:50;94709.72;;;11.02;35.04
55315;BME280;41619;42.816;23.226;2023-03-05T14:15:04;94715.41;;;10.61;35.73
55315;BME280;41619;42.816;23.226;2023-03-05T14:17:43;94706.72;;;10.45;35.98
55315;BME280;41619;42.816;23.226;2023-03-05T14:22:42;94707.63;;;10.08;36.20
55315;BME280;41619;42.816;23.226;2023-03-05T14:27:51;94709.00;;;9.84;37.07